sensor_id;sensor_type;location;lat;lon;timestamp;pressure;altitude;pressure_sealevel;temperature;humidity
21826;BME280;11075;47.944;11.776;2023-05-10T00:00:38;94172.63;;;11.54;42.92
21826;BME280;11075;47.944;11.776;2023-05-10T00:03:05;94173.72;;;10.79;43.93
21826;BME280;11075;47.944;11.776;2023-05-10T00:05:32;94168.22;;;11.46;42.75
21826;BME280;11075;47.944;11.776;2023-05-10T00:07:59;94173.28;;;8.63;49.28
21826;BME280;11075;47.944;11.776;2023-05-10T00:10:26;94175.38;;;11.19;43.78
21826;BME280;11075;47.944;11.776;2023-05-10T00:12:53;94171.09;;;10.99;44.11
21826;BME280;11075;47.944;11.776;2023-05-10T00:15:20;94172.09;;;10.75;44.76
21826;BME280;11075;47.944;11.776;2023-05-10T00:17:46;94179.50;;;10.62;44.40
21826;BME280;11075;47.944;11.776;2023-05-10T00:20:14;94172.59;;;10.80;43.66
21826;BME280;11075;47.944;11.776;2023-05-10T00:22:42;94172.63;;;11.35;42.16
21826;BME280;11075;47.944;11.776;2023-05-10T00:25:09;94173.25;;;11.86;41.94
21826;BME280;11075;47.944;11.776;2023-05-10T00:27:36;94177.06;;;11.08;43.77
21826;BME280;11075;47.944;11.776;2023-05-10T00:30:04;94176.81;;;11.32;43.06
21826;BME280;11075;47.944;11.776;2023-05-10T00:32:31;94175.66;;;10.00;45.37
21826;BME280;11075;47.944;11.776;2023-05-10T00:34:58;94179.78;;;10.41;45.21
21826;BME280;11075;47.944;11.776;2023-05-10T00:37:26;94173.16;;;11.05;43.81
21826;BME280;11075;47.944;11.776;2023-05-10T00:39:52;94170.41;;;11.02;42.77
21826;BME280;11075;47.944;11.776;2023-05-10T00:42:19;94170.94;;;10.76;43.35
21826;BME280;11075;47.944;11.776;2023-05-10T00:44:47;94175.53;;;11.26;42.85
21826;BME280;11075;47.944;11.776;2023-05-10T00:47:15;94174.91;;;10.31;45.60
21826;BME280;11075;47.944;11.776;2023-05-10T00:49:42;94168.34;;;12.15;41.42
21826;BME280;11075;47.944;11.776;2023-05-10T00:52:10;94169.25;;;12.22;40.91
21826;BME280;11075;47.944;11.776;2023-05-10T00:54:37;94177.13;;;9.42;46.77
21826;BME280;11075;47.944;11.776;2023-05-10T00:57:04;94174.66;;;11.03;43.90
21826;BME280;11075;47.944;11.776;2023-05-10T00:59:31;94168.44;;;11.37;42.59
21826;BME280;11075;47.944;11.776;2023-05-10T01:01:58;94166.81;;;11.33;42.46
21826;BME280;11075;47.944;11.776;2023-05-10T01:04:25;94177.16;;;11.50;42.66
21826;BME280;11075;47.944;11.776;2023-05-10T01:06:52;94169.91;;;11.16;43.11
21826;BME280;11075;47.944;11.776;2023-05-10T01:09:21;94173.69;;;9.01;47.54
21826;BME280;11075;47.944;11.776;2023-05-10T01:11:48;94168.75;;;10.82;44.20
21826;BME280;11075;47.944;11.776;2023-05-10T01:14:18;94168.28;;;9.97;45.37
21826;BME280;11075;47.944;11.776;2023-05-10T01:16:47;94171.84;;;10.17;45.52
21826;BME280;11075;47.944;11.776;2023-05-10T01:19:21;94174.56;;;10.99;43.37
21826;BME280;11075;47.944;11.776;2023-05-10T01:25:06;94164.78;;;8.24;49.79
21826;BME280;11075;47.944;11.776;2023-05-10T01:28:14;94159.47;;;12.14;41.11
21826;BME280;11075;47.944;11.776;2023-05-10T01:33:35;94169.22;;;10.21;44.50
21826;BME280;11075;47.944;11.776;2023-05-10T01:36:19;94158.22;;;11.27;42.19
21826;BME280;11075;47.944;11.776;2023-05-10T01:42:03;94156.06;;;10.82;43.37
21826;BME280;11075;47.944;11.776;2023-05-10T01:44:37;94163.84;;;10.05;45.01
21826;BME280;11075;47.944;11.776;2023-05-10T01:47:08;94157.94;;;10.15;45.36
21826;BME280;11075;47.944;11.776;2023-05-10T01:49:43;94158.66;;;10.94;43.97
21826;BME280;11075;47.944;11.776;2023-05-10T01:52:18;94161.84;;;10.17;44.26
21826;BME280;11075;47.944;11.776;2023-05-10T01:54:56;94168.91;;;9.23;47.04
21826;BME280;11075;47.944;11.776;2023-05-10T01:57:34;94165.88;;;11.44;42.72
21826;BME280;11075;47.944;11.776;2023-05-10T02:00:03;94165.22;;;10.77;43.85
21826;BME280;11075;47.944;11.776;2023-05-10T02:02:42;94172.50;;;10.77;44.24
21826;BME280;11075;47.944;11.776;2023-05-10T02:05:13;94166.28;;;11.08;43.15
21826;BME280;11075;47.944;11.776;2023-05-10T02:07:40;94165.31;;;10.18;44.08
21826;BME280;11075;47.944;11.776;2023-05-10T02:10:09;94172.22;;;10.47;44.02
21826;BME280;11075;47.944;11.776;2023-05-10T02:12:40;94172.00;;;10.71;43.59
21826;BME280;11075;47.944;11.776;2023-05-10T02:15:09;94164.53;;;10.17;44.40
21826;BME280;11075;47.944;11.776;2023-05-10T02:17:37;94164.53;;;11.54;42.42
21826;BME280;11075;47.944;11.776;2023-05-10T02:20:06;94168.72;;;10.46;44.08
21826;BME280;11075;47.944;11.776;2023-05-10T02:22:35;94168.31;;;9.69;46.19
21826;BME280;11075;47.944;11.776;2023-05-10T02:25:04;94168.38;;;10.64;43.85
21826;BME280;11075;47.944;11.776;2023-05-10T02:27:31;94160.03;;;11.04;43.20
21826;BME280;11075;47.944;11.776;2023-05-10T02:29:58;94155.69;;;11.96;40.44
21826;BME280;11075;47.944;11.776;2023-05-10T02:32:27;94167.69;;;12.67;39.46
21826;BME280;11075;47.944;11.776;2023-05-10T02:34:56;94156.41;;;10.80;43.12
21826;BME280;11075;47.944;11.776;2023-05-10T02:37:24;94163.75;;;11.34;42.18
21826;BME280;11075;47.944;11.776;2023-05-10T02:39:53;94169.56;;;12.17;40.19
21826;BME280;11075;47.944;11.776;2023-05-10T02:42:27;94156.44;;;11.16;41.83
21826;BME280;11075;47.944;11.776;2023-05-10T02:45:00;94167.09;;;10.26;44.65
21826;BME280;11075;47.944;11.776;2023-05-10T02:47:28;94161.31;;;10.75;42.64
21826;BME280;11075;47.944;11.776;2023-05-10T02:49:55;94155.31;;;11.36;41.60
21826;BME280;11075;47.944;11.776;2023-05-10T02:52:29;94165.41;;;10.22;43.72
21826;BME280;11075;47.944;11.776;2023-05-10T02:55:05;94160.19;;;11.50;41.58
21826;BME280;11075;47.944;11.776;2023-05-10T02:57:34;94164.09;;;10.63;43.50
21826;BME280;11075;47.944;11.776;2023-05-10T03:00:02;94172.09;;;10.12;44.58
21826;BME280;11075;47.944;11.776;2023-05-10T03:02:30;94170.19;;;9.97;45.07
21826;BME280;11075;47.944;11.776;2023-05-10T03:04:58;94168.44;;;11.37;42.04
21826;BME280;11075;47.944;11.776;2023-05-10T03:07:25;94172.63;;;9.58;46.34
21826;BME280;11075;47.944;11.776;2023-05-10T03:09:52;94174.03;;;10.27;44.20
21826;BME280;11075;47.944;11.776;2023-05-10T03:12:33;94176.13;;;9.46;45.86
21826;BME280;11075;47.944;11.776;2023-05-10T03:15:18;94175.59;;;10.60;43.05
21826;BME280;11075;47.944;11.776;2023-05-10T03:18:00;94185.59;;;8.51;49.46
21826;BME280;11075;47.944;11.776;2023-05-10T03:20:38;94181.03;;;10.00;45.69
21826;BME280;11075;47.944;11.776;2023-05-10T03:23:13;94194.88;;;9.71;45.48
21826;BME280;11075;47.944;11.776;2023-05-10T03:25:48;94181.63;;;9.38;46.34
21826;BME280;11075;47.944;11.776;2023-05-10T03:28:17;94193.09;;;9.91;45.51
21826;BME280;11075;47.944;11.776;2023-05-10T03:30:46;94191.16;;;11.75;41.43
21826;BME280;11075;47.944;11.776;2023-05-10T03:33:13;94196.50;;;9.07;46.47
21826;BME280;11075;47.944;11.776;2023-05-10T03:35:44;94193.69;;;9.56;46.40
21826;BME280;11075;47.944;11.776;2023-05-10T03:38:13;94197.78;;;9.94;45.70
21826;BME280;11075;47.944;11.776;2023-05-10T03:40:40;94193.63;;;8.64;47.44
21826;BME280;11075;47.944;11.776;2023-05-10T03:43:07;94196.44;;;8.67;48.67
21826;BME280;11075;47.944;11.776;2023-05-10T03:45:34;94201.34;;;8.77;48.12
21826;BME280;11075;47.944;11.776;2023-05-10T03:48:03;94205.47;;;8.26;48.98
21826;BME280;11075;47.944;11.776;2023-05-10T03:50:30;94201.97;;;9.51;46.09
21826;BME280;11075;47.944;11.776;2023-05-10T03:52:56;94208.47;;;9.50;46.73
21826;BME280;11075;47.944;11.776;2023-05-10T03:55:24;94203.59;;;9.00;47.03
21826;BME280;11075;47.944;11.776;2023-05-10T03:57:51;94207.00;;;9.25;46.79
21826;BME280;11075;47.944;11.776;2023-05-10T04:00:18;94210.34;;;10.65;43.68
21826;BME280;11075;47.944;11.776;2023-05-10T04:02:48;94207.16;;;9.56;46.18
21826;BME280;11075;47.944;11.776;2023-05-10T04:05:18;94214.06;;;9.85;45.79
21826;BME280;11075;47.944;11.776;2023-05-10T04:07:45;94205.47;;;9.11;46.71
21826;BME280;11075;47.944;11.776;2023-05-10T04:10:13;94209.63;;;10.21;45.07
21826;BME280;11075;47.944;11.776;2023-05-10T04:12:40;94207.59;;;9.58;45.65
21826;BME280;11075;47.944;11.776;2023-05-10T04:15:08;94209.59;;;7.78;50.71
21826;BME280;11075;47.944;11.776;2023-05-10T04:17:35;94218.44;;;8.12;49.86
21826;BME280;11075;47.944;11.776;2023-05-10T04:20:03;94217.91;;;9.44;46.22
21826;BME280;11075;47.944;11.776;2023-05-10T04:22:30;94219.78;;;7.52;51.05
21826;BME280;11075;47.944;11.776;2023-05-10T04:24:57;94215.91;;;8.88;47.94
21826;BME280;11075;47.944;11.776;2023-05-10T04:27:23;94229.53;;;7.89;50.49
21826;BME280;11075;47.944;11.776;2023-05-10T04:29:51;94225.34;;;9.35;46.78
21826;BME280;11075;47.944;11.776;2023-05-10T04:32:18;94225.06;;;9.52;45.35
21826;BME280;11075;47.944;11.776;2023-05-10T04:34:46;94226.88;;;8.02;50.51
21826;BME280;11075;47.944;11.776;2023-05-10T04:37:13;94230.69;;;9.47;47.03
21826;BME280;11075;47.944;11.776;2023-05-10T04:39:40;94232.34;;;9.51;46.00
21826;BME280;11075;47.944;11.776;2023-05-10T04:42:08;94228.66;;;10.28;44.97
21826;BME280;11075;47.944;11.776;2023-05-10T04:44:35;94234.94;;;10.04;45.06
21826;BME280;11075;47.944;11.776;2023-05-10T04:47:02;94231.22;;;8.39;49.07
21826;BME280;11075;47.944;11.776;2023-05-10T04:49:29;94228.31;;;9.58;45.90
21826;BME280;11075;47.944;11.776;2023-05-10T04:51:56;94237.22;;;8.12;49.54
21826;BME280;11075;47.944;11.776;2023-05-10T04:54:23;94240.06;;;8.64;48.89
21826;BME280;11075;47.944;11.776;2023-05-10T04:56:50;94231.56;;;9.51;44.85
21826;BME280;11075;47.944;11.776;2023-05-10T04:59:18;94238.19;;;9.41;47.09
21826;BME280;11075;47.944;11.776;2023-05-10T05:01:45;94239.03;;;9.17;47.65
21826;BME280;11075;47.944;11.776;2023-05-10T05:04:11;94235.56;;;8.19;49.86
21826;BME280;11075;47.944;11.776;2023-05-10T05:06:38;94235.81;;;9.64;46.11
21826;BME280;11075;47.944;11.776;2023-05-10T05:09:05;94239.72;;;8.53;48.90
21826;BME280;11075;47.944;11.776;2023-05-10T05:11:32;94240.66;;;8.82;48.27
21826;BME280;11075;47.944;11.776;2023-05-10T05:13:59;94239.72;;;7.63;49.94
21826;BME280;11075;47.944;11.776;2023-05-10T05:16:26;94244.34;;;10.10;44.86
21826;BME280;11075;47.944;11.776;2023-05-10T05:18:53;94242.31;;;8.99;47.42
21826;BME280;11075;47.944;11.776;2023-05-10T05:21:20;94241.47;;;9.75;45.19
21826;BME280;11075;47.944;11.776;2023-05-10T05:23:47;94245.94;;;7.88;49.11
21826;BME280;11075;47.944;11.776;2023-05-10T05:26:14;94253.06;;;8.86;47.95
21826;BME280;11075;47.944;11.776;2023-05-10T05:28:41;94255.91;;;9.55;46.38
21826;BME280;11075;47.944;11.776;2023-05-10T05:31:08;94252.84;;;8.10;49.12
21826;BME280;11075;47.944;11.776;2023-05-10T05:33:36;94255.63;;;9.07;46.91
21826;BME280;11075;47.944;11.776;2023-05-10T05:36:04;94255.84;;;9.95;46.09
21826;BME280;11075;47.944;11.776;2023-05-10T05:38:32;94269.66;;;7.65;51.22
21826;BME280;11075;47.944;11.776;2023-05-10T05:40:59;94269.06;;;8.95;47.76
21826;BME280;11075;47.944;11.776;2023-05-10T05:43:26;94271.09;;;10.19;45.11
21826;BME280;11075;47.944;11.776;2023-05-10T05:45:53;94275.28;;;8.38;49.40
21826;BME280;11075;47.944;11.776;2023-05-10T05:48:20;94285.41;;;7.67;50.80
21826;BME280;11075;47.944;11.776;2023-05-10T05:50:47;94280.56;;;9.84;46.04
21826;BME280;11075;47.944;11.776;2023-05-10T05:53:14;94281.25;;;8.68;47.73
21826;BME280;11075;47.944;11.776;2023-05-10T05:55:55;94284.03;;;8.72;48.74
21826;BME280;11075;47.944;11.776;2023-05-10T05:58:24;94287.41;;;8.69;47.76
21826;BME280;11075;47.944;11.776;2023-05-10T06:00:51;94286.63;;;10.09;44.80
21826;BME280;11075;47.944;11.776;2023-05-10T06:03:19;94285.38;;;9.39;46.13
21826;BME280;11075;47.944;11.776;2023-05-10T06:05:46;94288.06;;;8.53;48.16
21826;BME280;11075;47.944;11.776;2023-05-10T06:08:13;94290.81;;;8.00;49.70
21826;BME280;11075;47.944;11.776;2023-05-10T06:10:40;94291.97;;;9.41;46.18
21826;BME280;11075;47.944;11.776;2023-05-10T06:13:07;94296.97;;;8.00;48.73
21826;BME280;11075;47.944;11.776;2023-05-10T06:15:34;94299.41;;;8.96;45.99
21826;BME280;11075;47.944;11.776;2023-05-10T06:18:01;94304.38;;;10.86;43.12
21826;BME280;11075;47.944;11.776;2023-05-10T06:20:28;94306.09;;;8.65;48.69
21826;BME280;11075;47.944;11.776;2023-05-10T06:22:54;94316.56;;;10.08;44.50
21826;BME280;11075;47.944;11.776;2023-05-10T06:25:21;94330.88;;;8.83;47.96
21826;BME280;11075;47.944;11.776;2023-05-10T06:27:48;94326.28;;;9.08;46.14
21826;BME280;11075;47.944;11.776;2023-05-10T06:30:19;94330.03;;;8.58;46.93
21826;BME280;11075;47.944;11.776;2023-05-10T06:32:46;94334.47;;;6.79;50.94
21826;BME280;11075;47.944;11.776;2023-05-10T06:35:13;94337.72;;;8.14;47.89
21826;BME280;11075;47.944;11.776;2023-05-10T06:37:41;94335.81;;;9.05;45.08
21826;BME280;11075;47.944;11.776;2023-05-10T06:40:08;94337.34;;;9.43;43.15
21826;BME280;11075;47.944;11.776;2023-05-10T06:42:35;94335.63;;;8.65;45.44
21826;BME280;11075;47.944;11.776;2023-05-10T06:45:03;94342.63;;;9.27;43.82
21826;BME280;11075;47.944;11.776;2023-05-10T06:47:30;94336.56;;;9.30;44.67
21826;BME280;11075;47.944;11.776;2023-05-10T06:49:57;94341.38;;;7.47;48.17
21826;BME280;11075;47.944;11.776;2023-05-10T06:52:24;94341.53;;;8.59;45.93
21826;BME280;11075;47.944;11.776;2023-05-10T06:54:51;94339.88;;;8.21;46.51
21826;BME280;11075;47.944;11.776;2023-05-10T06:57:18;94338.00;;;9.64;43.45
21826;BME280;11075;47.944;11.776;2023-05-10T06:59:58;94335.28;;;8.67;45.99
21826;BME280;11075;47.944;11.776;2023-05-10T07:02:25;94335.44;;;9.56;43.97
21826;BME280;11075;47.944;11.776;2023-05-10T07:04:53;94338.56;;;9.70;43.39
21826;BME280;11075;47.944;11.776;2023-05-10T07:07:21;94342.28;;;9.29;44.09
21826;BME280;11075;47.944;11.776;2023-05-10T07:09:47;94343.41;;;9.03;45.15
21826;BME280;11075;47.944;11.776;2023-05-10T07:12:15;94349.69;;;9.32;44.42
21826;BME280;11075;47.944;11.776;2023-05-10T07:14:42;94352.75;;;8.28;46.74
21826;BME280;11075;47.944;11.776;2023-05-10T07:17:09;94354.72;;;9.33;44.09
21826;BME280;11075;47.944;11.776;2023-05-10T07:19:36;94346.59;;;9.82;43.48
21826;BME280;11075;47.944;11.776;2023-05-10T07:22:03;94350.00;;;9.42;43.88
21826;BME280;11075;47.944;11.776;2023-05-10T07:24:31;94354.31;;;10.24;42.71
21826;BME280;11075;47.944;11.776;2023-05-10T07:26:59;94354.25;;;10.08;43.60
21826;BME280;11075;47.944;11.776;2023-05-10T07:29:25;94356.53;;;10.77;42.20
21826;BME280;11075;47.944;11.776;2023-05-10T07:31:53;94353.13;;;10.80;42.13
21826;BME280;11075;47.944;11.776;2023-05-10T07:34:24;94353.78;;;11.56;40.68
21826;BME280;11075;47.944;11.776;2023-05-10T07:36:51;94349.34;;;9.98;45.10
21826;BME280;11075;47.944;11.776;2023-05-10T07:39:19;94358.81;;;11.07;41.60
21826;BME280;11075;47.944;11.776;2023-05-10T07:41:56;94364.38;;;9.99;44.32
21826;BME280;11075;47.944;11.776;2023-05-10T07:44:23;94364.38;;;10.98;43.20
21826;BME280;11075;47.944;11.776;2023-05-10T07:46:51;94357.41;;;12.34;40.90
21826;BME280;11075;47.944;11.776;2023-05-10T07:49:18;94370.84;;;10.66;42.12
21826;BME280;11075;47.944;11.776;2023-05-10T07:51:44;94369.06;;;11.33;42.27
21826;BME280;11075;47.944;11.776;2023-05-10T07:54:11;94366.16;;;11.73;42.80
21826;BME280;11075;47.944;11.776;2023-05-10T07:56:41;94366.41;;;12.61;41.36
21826;BME280;11075;47.944;11.776;2023-05-10T07:59:15;94369.47;;;10.28;45.73
21826;BME280;11075;47.944;11.776;2023-05-10T08:01:43;94369.44;;;10.56;43.83
21826;BME280;11075;47.944;11.776;2023-05-10T08:04:09;94368.03;;;11.06;43.09
21826;BME280;11075;47.944;11.776;2023-05-10T08:06:37;94365.84;;;11.43;41.92
21826;BME280;11075;47.944;11.776;2023-05-10T08:09:04;94358.72;;;12.86;39.45
21826;BME280;11075;47.944;11.776;2023-05-10T08:11:31;94360.00;;;11.41;43.59
21826;BME280;11075;47.944;11.776;2023-05-10T08:14:00;94361.50;;;12.89;40.95
21826;BME280;11075;47.944;11.776;2023-05-10T08:16:27;94363.88;;;13.14;39.29
21826;BME280;11075;47.944;11.776;2023-05-10T08:18:54;94368.78;;;11.38;41.61
21826;BME280;11075;47.944;11.776;2023-05-10T08:21:22;94367.22;;;11.88;39.98
21826;BME280;11075;47.944;11.776;2023-05-10T08:23:49;94361.13;;;11.91;41.61
21826;BME280;11075;47.944;11.776;2023-05-10T08:26:16;94370.56;;;12.78;38.99
21826;BME280;11075;47.944;11.776;2023-05-10T08:28:42;94362.03;;;11.79;41.07
21826;BME280;11075;47.944;11.776;2023-05-10T08:31:09;94373.75;;;11.36;42.64
21826;BME280;11075;47.944;11.776;2023-05-10T08:33:36;94371.72;;;10.26;42.90
21826;BME280;11075;47.944;11.776;2023-05-10T08:36:03;94368.75;;;12.24;39.68
21826;BME280;11075;47.944;11.776;2023-05-10T08:38:30;94371.38;;;12.20;40.57
21826;BME280;11075;47.944;11.776;2023-05-10T08:40:58;94374.97;;;11.89;41.46
21826;BME280;11075;47.944;11.776;2023-05-10T08:43:29;94363.47;;;11.57;41.99
21826;BME280;11075;47.944;11.776;2023-05-10T08:46:00;94373.22;;;10.39;42.77
21826;BME280;11075;47.944;11.776;2023-05-10T08:48:28;94377.69;;;10.47;43.77
21826;BME280;11075;47.944;11.776;2023-05-10T08:50:58;94375.94;;;11.15;42.01
21826;BME280;11075;47.944;11.776;2023-05-10T08:53:26;94373.06;;;12.09;40.64
21826;BME280;11075;47.944;11.776;2023-05-10T08:55:55;94375.72;;;10.60;42.78
21826;BME280;11075;47.944;11.776;2023-05-10T08:58:22;94371.59;;;12.12;40.32
21826;BME280;11075;47.944;11.776;2023-05-10T09:00:49;94374.31;;;12.50;39.47
21826;BME280;11075;47.944;11.776;2023-05-10T09:03:20;94375.72;;;12.63;39.06
21826;BME280;11075;47.944;11.776;2023-05-10T09:05:48;94375.75;;;11.90;39.89
21826;BME280;11075;47.944;11.776;2023-05-10T09:08:15;94377.34;;;12.91;40.07
21826;BME280;11075;47.944;11.776;2023-05-10T09:10:45;94367.06;;;12.77;38.51
21826;BME280;11075;47.944;11.776;2023-05-10T09:13:14;94372.09;;;13.21;37.31
21826;BME280;11075;47.944;11.776;2023-05-10T09:15:44;94373.44;;;12.65;39.34
21826;BME280;11075;47.944;11.776;2023-05-10T09:18:11;94367.91;;;13.00;37.61
21826;BME280;11075;47.944;11.776;2023-05-10T09:20:39;94381.66;;;13.15;37.63
21826;BME280;11075;47.944;11.776;2023-05-10T09:23:07;94370.66;;;13.27;37.91
21826;BME280;11075;47.944;11.776;2023-05-10T09:25:34;94357.34;;;11.60;40.06
21826;BME280;11075;47.944;11.776;2023-05-10T09:28:01;94378.69;;;11.50;41.53
21826;BME280;11075;47.944;11.776;2023-05-10T09:30:29;94379.25;;;10.08;46.45
21826;BME280;11075;47.944;11.776;2023-05-10T09:32:58;94375.38;;;9.94;45.60
21826;BME280;11075;47.944;11.776;2023-05-10T09:35:27;94375.34;;;8.60;46.75
21826;BME280;11075;47.944;11.776;2023-05-10T09:38:00;94388.66;;;10.98;42.26
21826;BME280;11075;47.944;11.776;2023-05-10T09:40:28;94387.75;;;9.34;45.09
21826;BME280;11075;47.944;11.776;2023-05-10T09:43:01;94380.69;;;10.90;42.81
21826;BME280;11075;47.944;11.776;2023-05-10T09:45:30;94378.44;;;11.70;40.69
21826;BME280;11075;47.944;11.776;2023-05-10T09:47:58;94378.66;;;12.35;40.40
21826;BME280;11075;47.944;11.776;2023-05-10T09:50:26;94372.38;;;10.51;42.46
21826;BME280;11075;47.944;11.776;2023-05-10T09:52:58;94380.03;;;10.49;44.25
21826;BME280;11075;47.944;11.776;2023-05-10T09:55:41;94375.53;;;10.13;46.67
21826;BME280;11075;47.944;11.776;2023-05-10T09:58:12;94370.69;;;11.53;42.26
21826;BME280;11075;47.944;11.776;2023-05-10T10:00:40;94369.91;;;11.68;41.19
21826;BME280;11075;47.944;11.776;2023-05-10T10:03:15;94373.59;;;12.34;39.89
21826;BME280;11075;47.944;11.776;2023-05-10T10:05:43;94383.78;;;12.41;40.28
21826;BME280;11075;47.944;11.776;2023-05-10T10:08:11;94382.28;;;9.18;45.23
21826;BME280;11075;47.944;11.776;2023-05-10T10:10:39;94389.53;;;11.18;41.43
21826;BME280;11075;47.944;11.776;2023-05-10T10:13:07;94383.81;;;11.70;40.98
21826;BME280;11075;47.944;11.776;2023-05-10T10:15:35;94387.88;;;10.26;44.30
21826;BME280;11075;47.944;11.776;2023-05-10T10:18:02;94378.28;;;11.48;41.14
21826;BME280;11075;47.944;11.776;2023-05-10T10:20:31;94384.69;;;10.36;44.03
21826;BME280;11075;47.944;11.776;2023-05-10T10:22:58;94386.56;;;10.64;43.34
21826;BME280;11075;47.944;11.776;2023-05-10T10:25:25;94370.56;;;12.35;41.00
21826;BME280;11075;47.944;11.776;2023-05-10T10:30:27;94384.03;;;12.16;40.15
21826;BME280;11075;47.944;11.776;2023-05-10T10:33:01;94378.84;;;12.65;38.92
21826;BME280;11075;47.944;11.776;2023-05-10T10:35:54;94374.88;;;13.01;39.22
21826;BME280;11075;47.944;11.776;2023-05-10T10:38:22;94371.41;;;12.39;40.63
21826;BME280;11075;47.944;11.776;2023-05-10T10:41:01;94373.31;;;11.65;42.01
21826;BME280;11075;47.944;11.776;2023-05-10T10:43:29;94374.69;;;10.96;42.97
21826;BME280;11075;47.944;11.776;2023-05-10T10:46:15;94384.56;;;11.87;41.20
21826;BME280;11075;47.944;11.776;2023-05-10T10:48:48;94369.28;;;11.59;42.92
21826;BME280;11075;47.944;11.776;2023-05-10T10:51:16;94378.81;;;10.06;45.43
21826;BME280;11075;47.944;11.776;2023-05-10T10:53:43;94374.88;;;11.66;42.74
21826;BME280;11075;47.944;11.776;2023-05-10T10:56:12;94373.59;;;10.54;44.77
21826;BME280;11075;47.944;11.776;2023-05-10T10:58:49;94382.91;;;9.88;45.07
21826;BME280;11075;47.944;11.776;2023-05-10T11:01:18;94382.97;;;10.44;43.08
21826;BME280;11075;47.944;11.776;2023-05-10T11:04:17;94381.91;;;10.92;42.52
21826;BME280;11075;47.944;11.776;2023-05-10T11:06:44;94374.03;;;11.31;42.79
21826;BME280;11075;47.944;11.776;2023-05-10T11:09:12;94372.97;;;12.41;40.53
21826;BME280;11075;47.944;11.776;2023-05-10T11:11:52;94370.81;;;12.11;41.28
21826;BME280;11075;47.944;11.776;2023-05-10T11:14:21;94385.00;;;10.63;43.52
21826;BME280;11075;47.944;11.776;2023-05-10T11:16:49;94372.50;;;12.58;41.09
21826;BME280;11075;47.944;11.776;2023-05-10T11:19:17;94373.03;;;11.70;42.43
21826;BME280;11075;47.944;11.776;2023-05-10T11:24:38;94370.69;;;11.53;43.38
21826;BME280;11075;47.944;11.776;2023-05-10T11:27:05;94362.63;;;12.65;41.28
21826;BME280;11075;47.944;11.776;2023-05-10T11:29:32;94370.47;;;13.92;39.49
21826;BME280;11075;47.944;11.776;2023-05-10T11:32:00;94366.34;;;12.80;41.67
21826;BME280;11075;47.944;11.776;2023-05-10T11:34:31;94368.94;;;11.96;42.45
21826;BME280;11075;47.944;11.776;2023-05-10T11:37:00;94369.78;;;11.81;41.46
21826;BME280;11075;47.944;11.776;2023-05-10T11:39:28;94369.31;;;10.37;43.65
21826;BME280;11075;47.944;11.776;2023-05-10T11:41:57;94369.13;;;13.29;39.31
21826;BME280;11075;47.944;11.776;2023-05-10T11:44:31;94376.84;;;10.75;43.84
21826;BME280;11075;47.944;11.776;2023-05-10T11:47:00;94384.03;;;11.15;43.34
21826;BME280;11075;47.944;11.776;2023-05-10T11:49:27;94388.81;;;11.37;41.56
21826;BME280;11075;47.944;11.776;2023-05-10T11:52:06;94394.25;;;10.22;43.53
21826;BME280;11075;47.944;11.776;2023-05-10T11:54:33;94398.09;;;8.74;44.04
21826;BME280;11075;47.944;11.776;2023-05-10T11:57:03;94409.72;;;9.36;44.63
21826;BME280;11075;47.944;11.776;2023-05-10T11:59:30;94410.38;;;8.30;45.73
21826;BME280;11075;47.944;11.776;2023-05-10T12:01:57;94419.47;;;9.28;44.85
21826;BME280;11075;47.944;11.776;2023-05-10T12:04:25;94420.69;;;8.40;45.65
21826;BME280;11075;47.944;11.776;2023-05-10T12:06:54;94433.59;;;8.47;45.13
21826;BME280;11075;47.944;11.776;2023-05-10T12:09:22;94438.81;;;7.22;48.33
21826;BME280;11075;47.944;11.776;2023-05-10T12:11:55;94428.34;;;8.50;45.73
21826;BME280;11075;47.944;11.776;2023-05-10T12:14:26;94424.25;;;8.98;45.16
21826;BME280;11075;47.944;11.776;2023-05-10T12:16:53;94441.78;;;8.50;45.40
21826;BME280;11075;47.944;11.776;2023-05-10T12:19:20;94439.09;;;9.65;43.89
21826;BME280;11075;47.944;11.776;2023-05-10T12:21:47;94433.22;;;10.00;43.58
21826;BME280;11075;47.944;11.776;2023-05-10T12:24:14;94438.28;;;9.16;44.60
21826;BME280;11075;47.944;11.776;2023-05-10T12:26:45;94434.59;;;9.33;45.27
21826;BME280;11075;47.944;11.776;2023-05-10T12:29:13;94433.69;;;8.17;47.67
21826;BME280;11075;47.944;11.776;2023-05-10T12:31:58;94439.56;;;9.55;43.36
21826;BME280;11075;47.944;11.776;2023-05-10T12:34:30;94444.06;;;10.15;42.49
21826;BME280;11075;47.944;11.776;2023-05-10T12:36:58;94448.50;;;9.47;45.49
21826;BME280;11075;47.944;11.776;2023-05-10T12:39:25;94456.22;;;11.05;41.04
21826;BME280;11075;47.944;11.776;2023-05-10T12:41:52;94455.25;;;9.65;45.22
21826;BME280;11075;47.944;11.776;2023-05-10T12:44:19;94457.22;;;10.05;43.41
21826;BME280;11075;47.944;11.776;2023-05-10T12:46:46;94465.63;;;10.56;43.57
21826;BME280;11075;47.944;11.776;2023-05-10T12:49:13;94455.94;;;10.67;42.37
21826;BME280;11075;47.944;11.776;2023-05-10T12:51:39;94461.84;;;9.68;45.53
21826;BME280;11075;47.944;11.776;2023-05-10T12:54:07;94469.34;;;9.87;45.08
21826;BME280;11075;47.944;11.776;2023-05-10T12:56:34;94465.09;;;11.22;41.61
21826;BME280;11075;47.944;11.776;2023-05-10T12:59:00;94459.53;;;11.15;41.97
21826;BME280;11075;47.944;11.776;2023-05-10T13:01:28;94457.78;;;10.51;41.95
21826;BME280;11075;47.944;11.776;2023-05-10T13:03:54;94454.28;;;10.10;44.12
21826;BME280;11075;47.944;11.776;2023-05-10T13:06:21;94450.31;;;9.55;43.43
21826;BME280;11075;47.944;11.776;2023-05-10T13:08:48;94457.81;;;8.92;46.41
21826;BME280;11075;47.944;11.776;2023-05-10T13:11:15;94457.75;;;10.63;42.06
21826;BME280;11075;47.944;11.776;2023-05-10T13:13:43;94459.22;;;9.23;44.80
21826;BME280;11075;47.944;11.776;2023-05-10T13:16:10;94455.25;;;9.65;44.82
21826;BME280;11075;47.944;11.776;2023-05-10T13:18:37;94458.88;;;10.09;43.42